createdAt,value
2022-11-14T00:00:18.817Z,78.95
2022-11-14T00:01:18.719Z,78.89
2022-11-14T00:02:18.428Z,78.89
2022-11-14T00:03:18.045Z,78.94
2022-11-14T00:04:17.399Z,79.02
2022-11-14T00:05:17.758Z,79.05
2022-11-14T00:06:17.924Z,79.09
2022-11-14T00:07:18.421Z,79.04
2022-11-14T00:08:17.506Z,78.95
2022-11-14T00:09:17.888Z,78.90
2022-11-14T00:10:18.286Z,78.95
2022-11-14T00:11:17.969Z,79.06
2022-11-14T00:12:18.279Z,79.10
2022-11-14T00:13:17.647Z,79.05
2022-11-14T00:14:17.986Z,79.08
2022-11-14T00:15:17.748Z,79.10
2022-11-14T00:16:18.185Z,79.14
2022-11-14T00:17:17.661Z,79.18
2022-11-14T00:18:18.191Z,79.14
2022-11-14T00:19:17.854Z,79.09
2022-11-14T00:20:18.492Z,79.17
2022-11-14T00:21:17.759Z,79.17
2022-11-14T00:22:18.289Z,79.26
2022-11-14T00:23:17.773Z,79.29
2022-11-14T00:24:18.333Z,79.29
2022-11-14T00:25:18.102Z,79.25
2022-11-14T00:26:17.694Z,79.23
2022-11-14T00:27:18.139Z,79.23
2022-11-14T00:28:17.502Z,79.21
2022-11-14T00:29:17.923Z,79.13
2022-11-14T00:30:18.512Z,79.13
2022-11-14T00:31:18.128Z,79.13
2022-11-14T00:32:17.807Z,79.11
2022-11-14T00:33:25.126Z,79.13
2022-11-14T00:34:17.504Z,79.13
2022-11-14T00:35:18.035Z,79.20
2022-11-14T00:36:17.988Z,79.26
2022-11-14T00:37:17.516Z,79.30
2022-11-14T00:38:17.720Z,79.29
2022-11-14T00:39:18.022Z,79.34
2022-11-14T00:40:17.391Z,79.34
2022-11-14T00:41:17.541Z,79.34
2022-11-14T00:42:18.053Z,79.34
2022-11-14T00:43:17.667Z,79.37
2022-11-14T00:44:17.921Z,79.37
2022-11-14T00:45:18.291Z,79.38
2022-11-14T00:46:17.616Z,79.40
2022-11-14T00:47:17.979Z,79.48
2022-11-14T00:48:18.282Z,79.48
2022-11-14T00:49:17.766Z,79.53
2022-11-14T00:50:18.310Z,79.55
2022-11-14T00:51:17.948Z,79.66
2022-11-14T00:52:18.154Z,79.70
2022-11-14T00:53:17.407Z,79.74
2022-11-14T00:54:17.667Z,79.73
2022-11-14T00:55:18.263Z,79.70
2022-11-14T00:56:17.835Z,79.67
2022-11-14T00:57:18.164Z,79.59
2022-11-14T00:58:17.482Z,79.46
2022-11-14T00:59:17.922Z,79.53
2022-11-14T01:00:18.985Z,79.56
2022-11-14T01:01:20.030Z,79.67
2022-11-14T01:02:17.569Z,79.74
2022-11-14T01:03:18.229Z,79.70
2022-11-14T01:04:17.652Z,79.71
2022-11-14T01:05:18.584Z,79.69
2022-11-14T01:06:18.002Z,79.72
2022-11-14T01:07:17.585Z,79.78
2022-11-14T01:08:17.997Z,79.80
2022-11-14T01:09:17.774Z,79.86
2022-11-14T01:10:18.293Z,79.78
2022-11-14T01:11:17.732Z,79.74
2022-11-14T01:12:18.087Z,79.74
2022-11-14T01:13:17.910Z,79.77
2022-11-14T01:14:18.078Z,79.77
2022-11-14T01:15:17.919Z,79.74
2022-11-14T01:16:18.214Z,79.73
2022-11-14T01:17:17.465Z,79.75
2022-11-14T01:18:18.030Z,79.80
2022-11-14T01:19:17.449Z,79.82
2022-11-14T01:20:18.092Z,79.80
2022-11-14T01:21:17.640Z,79.79
2022-11-14T01:22:17.839Z,79.84
2022-11-14T01:23:18.518Z,79.80
2022-11-14T01:24:18.298Z,79.86
2022-11-14T01:25:18.078Z,79.84
2022-11-14T01:26:17.662Z,79.80
2022-11-14T01:27:18.123Z,79.81
2022-11-14T01:28:17.440Z,79.84
2022-11-14T01:29:17.480Z,79.88
2022-11-14T01:30:45.682Z,80.05
2022-11-14T01:31:17.817Z,80.05
2022-11-14T01:32:18.212Z,80.12
2022-11-14T01:33:17.510Z,80.31
2022-11-14T01:34:17.719Z,80.30
2022-11-14T01:35:18.100Z,80.26
2022-11-14T01:36:17.518Z,80.25
2022-11-14T01:37:17.903Z,80.21
2022-11-14T01:38:18.266Z,80.23
2022-11-14T01:39:17.972Z,80.19
2022-11-14T01:40:18.479Z,80.13
2022-11-14T01:41:18.111Z,80.20
2022-11-14T01:42:17.813Z,80.24
2022-11-14T01:43:17.485Z,80.18
2022-11-14T01:44:17.942Z,80.23
2022-11-14T01:45:18.302Z,80.20
2022-11-14T01:46:17.662Z,80.21
2022-11-14T01:47:18.131Z,80.23
2022-11-14T01:48:17.609Z,80.16
2022-11-14T01:49:17.942Z,80.21
2022-11-14T01:50:18.355Z,80.25
2022-11-14T01:51:17.773Z,80.24
2022-11-14T01:52:18.117Z,80.23
2022-11-14T01:53:17.901Z,80.24
2022-11-14T01:54:18.213Z,80.26
2022-11-14T01:55:17.914Z,80.24
2022-11-14T01:56:18.437Z,80.29
2022-11-14T01:57:18.071Z,80.33
2022-11-14T01:58:17.549Z,80.38
2022-11-14T01:59:17.817Z,80.44
2022-11-14T02:00:19.333Z,80.36
2022-11-14T02:01:17.997Z,80.27
2022-11-14T02:02:17.500Z,80.28
2022-11-14T02:03:17.972Z,80.30
2022-11-14T02:04:21.644Z,80.27
2022-11-14T02:05:18.320Z,80.31
2022-11-14T02:06:18.514Z,80.26
2022-11-14T02:07:18.071Z,80.24
2022-11-14T02:08:17.643Z,80.28
2022-11-14T02:09:18.343Z,80.23
2022-11-14T02:10:18.093Z,80.23
2022-11-14T02:11:16.281Z,80.28
2022-11-14T02:12:17.716Z,80.26
2022-11-14T02:13:17.950Z,80.35
2022-11-14T02:14:18.048Z,80.36
2022-11-14T02:15:17.768Z,80.41
2022-11-14T02:16:17.980Z,80.36
2022-11-14T02:17:37.022Z,80.33
2022-11-14T02:18:17.845Z,80.33
2022-11-14T02:19:18.390Z,80.43
2022-11-14T02:20:18.168Z,80.40
2022-11-14T02:21:17.472Z,80.33
2022-11-14T02:22:17.897Z,80.23
2022-11-14T02:23:18.281Z,80.19
2022-11-14T02:24:17.698Z,80.13
2022-11-14T02:25:18.403Z,80.15
2022-11-14T02:26:18.083Z,80.14
2022-11-14T02:27:17.666Z,80.12
2022-11-14T02:28:18.372Z,80.12
2022-11-14T02:29:17.697Z,80.05
2022-11-14T02:30:18.565Z,80.00
2022-11-14T02:31:18.086Z,79.94
2022-11-14T02:32:17.701Z,79.95
2022-11-14T02:33:18.512Z,80.07
2022-11-14T02:34:17.927Z,80.14
2022-11-14T02:35:18.105Z,80.12
2022-11-14T02:36:17.492Z,80.08
2022-11-14T02:37:17.885Z,80.12
2022-11-14T02:38:18.277Z,80.08
2022-11-14T02:39:17.664Z,80.07
2022-11-14T02:40:17.927Z,80.04
2022-11-14T02:41:18.333Z,79.98
2022-11-14T02:42:17.800Z,79.97
2022-11-14T02:43:18.090Z,79.95
2022-11-14T02:44:17.301Z,79.90
2022-11-14T02:45:17.739Z,79.86
2022-11-14T02:46:18.172Z,79.87
2022-11-14T02:47:17.650Z,79.88
2022-11-14T02:48:18.279Z,79.90
2022-11-14T02:49:17.623Z,79.96
2022-11-14T02:50:18.320Z,79.94
2022-11-14T02:51:17.427Z,79.94
2022-11-14T02:52:17.742Z,79.97
2022-11-14T02:53:18.127Z,79.94
2022-11-14T02:54:17.369Z,79.92
2022-11-14T02:55:17.783Z,79.89
2022-11-14T02:56:18.024Z,79.84
2022-11-14T02:57:17.284Z,79.98
2022-11-14T02:58:17.800Z,80.04
2022-11-14T02:59:18.079Z,80.07
2022-11-14T03:00:21.742Z,80.12
2022-11-14T03:01:27.716Z,80.16
2022-11-14T03:02:18.307Z,80.16
2022-11-14T03:03:17.866Z,80.18
2022-11-14T03:04:18.315Z,80.20
2022-11-14T03:05:17.883Z,80.25
2022-11-14T03:06:18.158Z,80.25
2022-11-14T03:07:17.547Z,80.18
2022-11-14T03:08:18.755Z,80.08
2022-11-14T03:09:18.408Z,80.07
2022-11-14T03:10:17.877Z,80.11
2022-11-14T03:11:18.294Z,80.22
2022-11-14T03:12:17.468Z,80.26
2022-11-14T03:13:17.826Z,80.29
2022-11-14T03:14:17.870Z,80.30
2022-11-14T03:15:18.686Z,80.30
2022-11-14T03:16:18.292Z,80.35
2022-11-14T03:17:17.954Z,80.33
2022-11-14T03:18:18.587Z,80.34
2022-11-14T03:19:18.021Z,80.31
2022-11-14T03:20:17.499Z,80.27
2022-11-14T03:21:18.032Z,80.24
2022-11-14T03:22:17.756Z,80.29
2022-11-14T03:23:18.160Z,80.32
2022-11-14T03:24:17.785Z,80.31
2022-11-14T03:25:18.138Z,80.34
2022-11-14T03:26:17.450Z,80.32
2022-11-14T03:27:18.013Z,80.38
2022-11-14T03:28:17.537Z,80.40
2022-11-14T03:29:17.794Z,80.45
2022-11-14T03:30:18.275Z,80.49
2022-11-14T03:31:17.668Z,80.44
2022-11-14T03:32:18.031Z,80.32
2022-11-14T03:33:17.403Z,80.26
2022-11-14T03:34:17.937Z,80.28
2022-11-14T03:35:18.327Z,80.26
2022-11-14T03:36:18.043Z,80.28
2022-11-14T03:37:17.746Z,80.34
2022-11-14T03:38:18.371Z,80.30
2022-11-14T03:39:17.856Z,80.30
2022-11-14T03:40:17.860Z,80.41
2022-11-14T03:41:18.266Z,80.41
2022-11-14T03:42:17.742Z,80.43
2022-11-14T03:43:17.941Z,80.62
2022-11-14T03:44:18.064Z,80.79
2022-11-14T03:45:17.402Z,80.84
2022-11-14T03:46:17.678Z,80.86
2022-11-14T03:47:17.516Z,80.80
2022-11-14T03:48:17.895Z,80.70
2022-11-14T03:49:18.337Z,80.71
2022-11-14T03:50:17.680Z,80.74
2022-11-14T03:51:18.007Z,80.71
2022-11-14T03:52:17.285Z,80.84
2022-11-14T03:53:17.963Z,80.94
2022-11-14T03:54:18.465Z,80.94
2022-11-14T03:55:17.989Z,81.06
2022-11-14T03:56:17.669Z,81.00
2022-11-14T03:57:18.234Z,81.08
2022-11-14T03:58:17.281Z,81.23
2022-11-14T03:59:17.419Z,81.37
2022-11-14T04:00:19.010Z,81.56
2022-11-14T04:01:17.697Z,81.77
2022-11-14T04:02:18.207Z,82.00
2022-11-14T04:03:17.479Z,82.18
2022-11-14T04:04:18.018Z,82.39
2022-11-14T04:05:17.643Z,82.51
2022-11-14T04:06:18.179Z,82.67
2022-11-14T04:07:17.668Z,82.71
2022-11-14T04:08:18.128Z,82.78
2022-11-14T04:09:17.722Z,82.84
2022-11-14T04:10:18.129Z,82.90
2022-11-14T04:11:18.085Z,82.96
2022-11-14T04:12:21.940Z,82.96
2022-11-14T04:13:18.297Z,83.07
2022-11-14T04:14:17.515Z,83.12
2022-11-14T04:15:17.870Z,83.16
2022-11-14T04:16:18.136Z,83.16
2022-11-14T04:17:17.837Z,83.21
2022-11-14T04:18:18.035Z,83.19
2022-11-14T04:19:18.164Z,83.09
2022-11-14T04:20:17.836Z,83.00
2022-11-14T04:21:18.343Z,82.91
2022-11-14T04:22:17.892Z,82.79
2022-11-14T04:23:18.281Z,82.83
2022-11-14T04:24:17.983Z,82.94
2022-11-14T04:25:17.480Z,82.97
2022-11-14T04:26:18.070Z,82.98
2022-11-14T04:27:17.471Z,82.75
2022-11-14T04:28:17.833Z,82.61
2022-11-14T04:29:18.366Z,82.45
2022-11-14T04:30:17.992Z,82.45
2022-11-14T04:31:17.508Z,82.30
2022-11-14T04:32:17.824Z,82.18
2022-11-14T04:33:18.634Z,82.26
2022-11-14T04:34:18.258Z,82.38
2022-11-14T04:35:17.864Z,82.42
2022-11-14T04:36:18.249Z,82.44
2022-11-14T04:37:17.726Z,82.34
2022-11-14T04:38:18.434Z,82.22
2022-11-14T04:39:18.192Z,81.96
2022-11-14T04:40:17.679Z,81.89
2022-11-14T04:41:17.984Z,82.02
2022-11-14T04:42:17.646Z,82.11
2022-11-14T04:43:18.000Z,81.98
2022-11-14T04:44:17.420Z,81.85
2022-11-14T04:45:18.263Z,81.74
2022-11-14T04:46:17.488Z,81.80
2022-11-14T04:47:18.019Z,81.81
2022-11-14T04:48:17.156Z,81.86
2022-11-14T04:49:17.639Z,81.84
2022-11-14T04:50:18.706Z,81.91
2022-11-14T04:51:18.169Z,81.96
2022-11-14T04:52:17.494Z,81.95
2022-11-14T04:53:18.071Z,81.95
2022-11-14T04:54:17.786Z,81.96
2022-11-14T04:55:18.106Z,81.97
2022-11-14T04:56:17.633Z,82.02
2022-11-14T04:57:18.129Z,82.01
2022-11-14T04:58:17.736Z,81.89
2022-11-14T04:59:23.440Z,82.18
2022-11-14T05:00:18.760Z,82.18
2022-11-14T05:01:18.670Z,82.32
2022-11-14T05:02:18.368Z,82.34
2022-11-14T05:03:18.161Z,82.42
2022-11-14T05:04:17.593Z,82.41
2022-11-14T05:05:18.248Z,82.46
2022-11-14T05:06:17.978Z,82.30
2022-11-14T05:07:18.808Z,82.22
2022-11-14T05:08:18.202Z,82.18
2022-11-14T05:09:17.813Z,82.09
2022-11-14T05:10:18.498Z,82.11
2022-11-14T05:11:18.096Z,82.14
2022-11-14T05:12:17.224Z,82.16
2022-11-14T05:13:17.701Z,82.19
2022-11-14T05:14:17.280Z,82.19
2022-11-14T05:15:18.374Z,82.09
2022-11-14T05:16:17.630Z,82.01
2022-11-14T05:17:18.138Z,81.98
2022-11-14T05:18:17.367Z,82.02
2022-11-14T05:19:17.693Z,82.09
2022-11-14T05:20:18.237Z,82.17
2022-11-14T05:21:17.634Z,82.16
2022-11-14T05:22:18.166Z,82.17
2022-11-14T05:23:17.490Z,82.16
2022-11-14T05:24:17.664Z,82.20
2022-11-14T05:25:18.432Z,82.18
2022-11-14T05:26:18.131Z,82.04
2022-11-14T05:27:17.471Z,81.94
2022-11-14T05:29:18.119Z,82.04
2022-11-14T05:31:17.600Z,82.17
2022-11-14T05:33:18.115Z,82.28
2022-11-14T05:34:17.838Z,82.36
2022-11-14T05:35:18.437Z,82.36
2022-11-14T05:36:17.863Z,82.45
2022-11-14T05:37:18.197Z,82.49
2022-11-14T05:38:17.679Z,82.42
2022-11-14T05:39:18.308Z,82.44
2022-11-14T05:40:18.125Z,82.37
2022-11-14T05:41:17.878Z,82.33
2022-11-14T05:42:18.104Z,82.36
2022-11-14T05:43:17.910Z,82.44
2022-11-14T05:44:18.135Z,82.48
2022-11-14T05:45:17.936Z,82.49
2022-11-14T05:46:18.276Z,82.58
2022-11-14T05:47:17.843Z,82.71
2022-11-14T05:48:18.593Z,82.83
2022-11-14T05:49:21.827Z,83.10
2022-11-14T05:50:18.117Z,83.17
2022-11-14T05:51:19.133Z,83.13
2022-11-14T05:52:17.960Z,83.34
2022-11-14T05:53:18.944Z,83.34
2022-11-14T05:54:18.392Z,83.48
2022-11-14T05:55:24.236Z,83.30
2022-11-14T05:56:18.075Z,83.36
2022-11-14T05:57:18.092Z,83.25
2022-11-14T05:58:17.529Z,83.15
2022-11-14T05:59:17.709Z,83.07
2022-11-14T06:00:19.483Z,82.98
2022-11-14T06:01:18.222Z,82.92
2022-11-14T06:02:17.984Z,82.85
2022-11-14T06:03:17.549Z,82.76
2022-11-14T06:04:18.182Z,82.66
2022-11-14T06:05:17.932Z,82.63
2022-11-14T06:06:17.955Z,82.58
2022-11-14T06:07:25.559Z,82.49
2022-11-14T06:08:18.172Z,82.49
2022-11-14T06:09:17.586Z,82.50
2022-11-14T06:10:18.382Z,82.52
2022-11-14T06:11:18.122Z,82.61
2022-11-14T06:12:36.850Z,82.47
2022-11-14T06:13:18.119Z,82.47
2022-11-14T06:14:18.255Z,82.44
2022-11-14T06:15:18.433Z,82.42
2022-11-14T06:16:18.495Z,82.39
2022-11-14T06:17:18.075Z,82.37
2022-11-14T06:18:17.634Z,82.37
2022-11-14T06:19:18.352Z,82.44
2022-11-14T06:20:17.989Z,82.55
2022-11-14T06:21:17.865Z,82.59
2022-11-14T06:22:18.241Z,82.65
2022-11-14T06:23:23.437Z,82.64
2022-11-14T06:24:18.223Z,82.62
2022-11-14T06:25:18.424Z,82.60
2022-11-14T06:26:17.710Z,82.54
2022-11-14T06:27:17.971Z,82.52
2022-11-14T06:28:19.109Z,82.51
2022-11-14T06:29:17.813Z,82.56
2022-11-14T06:30:18.529Z,82.54
2022-11-14T06:31:18.180Z,82.54
2022-11-14T06:32:17.874Z,82.66
2022-11-14T06:33:18.419Z,82.79
2022-11-14T06:34:17.767Z,82.93
2022-11-14T06:35:18.480Z,83.02
2022-11-14T06:36:18.220Z,83.16
2022-11-14T06:37:17.689Z,83.28
2022-11-14T06:38:18.464Z,83.24
2022-11-14T06:39:18.139Z,83.32
2022-11-14T06:40:17.455Z,83.36
2022-11-14T06:41:17.997Z,83.42
2022-11-14T06:42:18.012Z,83.55
2022-11-14T06:43:18.337Z,83.65
2022-11-14T06:44:17.819Z,83.71
2022-11-14T06:45:19.168Z,83.91
2022-11-14T06:46:18.213Z,83.97
2022-11-14T06:47:18.175Z,83.93
2022-11-14T06:48:17.628Z,84
2022-11-14T06:49:18.140Z,84.14
2022-11-14T06:50:17.535Z,84.30
2022-11-14T06:51:18.013Z,84.39
2022-11-14T06:52:17.460Z,84.36
2022-11-14T06:53:18.027Z,84.31
2022-11-14T06:54:23.611Z,84.40
2022-11-14T06:55:25.272Z,84.46
2022-11-14T06:56:20.607Z,84.45
2022-11-14T06:57:18.648Z,84.75
2022-11-14T06:58:22.199Z,84.81
2022-11-14T06:59:20.036Z,84.88
2022-11-14T07:00:20.216Z,84.98
2022-11-14T07:01:20.212Z,85.12
2022-11-14T07:02:21.652Z,85.11
2022-11-14T07:03:19.153Z,85.21
2022-11-14T07:04:21.466Z,85.38
2022-11-14T07:05:20.486Z,85.40
2022-11-14T07:06:18.986Z,85.44
2022-11-14T07:07:23.017Z,85.48
2022-11-14T07:08:30.014Z,85.50
2022-11-14T07:09:17.284Z,85.67
2022-11-14T07:10:17.666Z,85.92
2022-11-14T07:11:18.612Z,85.76
2022-11-14T07:12:18.206Z,85.79
2022-11-14T07:13:18.679Z,85.95
2022-11-14T07:14:17.960Z,86.05
2022-11-14T07:15:18.662Z,85.66
2022-11-14T07:16:17.831Z,85.78
2022-11-14T07:17:18.269Z,85.84
2022-11-14T07:18:17.557Z,85.95
2022-11-14T07:19:18.112Z,85.76
2022-11-14T07:20:59.095Z,85.62
2022-11-14T07:21:17.256Z,85.62
2022-11-14T07:22:17.865Z,85.59
2022-11-14T07:23:22.668Z,85.59
2022-11-14T07:24:17.804Z,85.72
2022-11-14T07:25:18.184Z,85.68
2022-11-14T07:26:17.868Z,85.58
2022-11-14T07:27:18.779Z,85.62
2022-11-14T07:28:18.523Z,85.25
2022-11-14T07:29:18.685Z,85.44
2022-11-14T07:30:18.750Z,85.64
2022-11-14T07:31:18.187Z,85.80
2022-11-14T07:32:17.959Z,85.98
2022-11-14T07:33:18.751Z,86.09
2022-11-14T07:34:18.255Z,86.01
2022-11-14T07:35:18.125Z,85.97
2022-11-14T07:36:17.911Z,86.14
2022-11-14T07:37:18.269Z,86.28
2022-11-14T07:38:17.584Z,86.19
2022-11-14T07:39:18.420Z,86.36
2022-11-14T07:40:18.109Z,86.35
2022-11-14T07:41:18.752Z,86.47
2022-11-14T07:42:18.078Z,86.26
2022-11-14T07:43:17.800Z,86.17
2022-11-14T07:44:18.278Z,86.49
2022-11-14T07:45:17.679Z,86.42
2022-11-14T07:46:18.251Z,86.19
2022-11-14T07:47:17.657Z,85.98
2022-11-14T07:48:18.115Z,85.68
2022-11-14T07:49:17.187Z,85.84
2022-11-14T07:50:20.779Z,85.82
2022-11-14T07:51:18.444Z,85.92
2022-11-14T07:52:17.642Z,85.87
2022-11-14T07:53:17.967Z,85.83
2022-11-14T07:54:18.078Z,85.80
2022-11-14T07:55:17.586Z,85.78
2022-11-14T07:56:17.798Z,85.81
2022-11-14T07:57:18.133Z,85.91
2022-11-14T07:58:17.560Z,85.55
2022-11-14T07:59:18.894Z,85.57
2022-11-14T08:00:19.140Z,85.70
2022-11-14T08:01:17.581Z,85.95
2022-11-14T08:02:17.921Z,85.88
2022-11-14T08:03:18.163Z,85.85
2022-11-14T08:04:17.371Z,85.94
2022-11-14T08:05:17.303Z,85.88
2022-11-14T08:06:17.199Z,85.83
2022-11-14T08:07:22.373Z,85.91
2022-11-14T08:08:17.809Z,85.86
2022-11-14T08:09:19.555Z,85.70
2022-11-14T08:10:17.358Z,85.69
2022-11-14T08:11:34.350Z,85.92
2022-11-14T08:12:17.164Z,85.88
2022-11-14T08:13:37.968Z,85.67
2022-11-14T08:14:17.893Z,85.67
2022-11-14T08:15:18.142Z,85.38
2022-11-14T08:16:19.715Z,85.44
2022-11-14T08:17:17.878Z,85.69
2022-11-14T08:18:17.715Z,85.85
2022-11-14T08:19:17.897Z,85.73
2022-11-14T08:20:17.792Z,85.37
2022-11-14T08:21:17.685Z,85.67
2022-11-14T08:22:17.305Z,85.84
2022-11-14T08:23:17.316Z,85.66
2022-11-14T08:24:17.364Z,85.55
2022-11-14T08:25:31.130Z,85.35
2022-11-14T08:26:17.334Z,85.35
2022-11-14T08:27:17.584Z,85.24
2022-11-14T08:28:17.476Z,85.26
2022-11-14T08:29:17.577Z,85.33
2022-11-14T08:30:17.399Z,85.13
2022-11-14T08:31:17.264Z,85.33
2022-11-14T08:32:17.406Z,85.10
2022-11-14T08:33:17.468Z,85.20
2022-11-14T08:34:17.548Z,85.44
2022-11-14T08:35:17.961Z,85.51
2022-11-14T08:36:17.742Z,85.16
2022-11-14T08:37:17.779Z,85.11
2022-11-14T08:38:17.411Z,85.14
2022-11-14T08:39:17.547Z,84.93
2022-11-14T08:40:17.737Z,84.88
2022-11-14T08:41:17.359Z,84.87
2022-11-14T08:42:17.163Z,84.67
2022-11-14T08:43:17.159Z,84.94
2022-11-14T08:44:17.434Z,84.91
2022-11-14T08:45:17.579Z,84.74
2022-11-14T08:46:19.667Z,84.69
2022-11-14T08:47:19.618Z,84.58
2022-11-14T08:48:17.746Z,84.59
2022-11-14T08:49:17.523Z,84.72
2022-11-14T08:50:17.177Z,84.59
2022-11-14T08:51:17.068Z,84.58
2022-11-14T08:53:17.743Z,84.58
2022-11-14T08:54:17.883Z,84.74
2022-11-14T08:55:18.015Z,84.45
2022-11-14T08:56:17.015Z,84.52
2022-11-14T08:57:16.761Z,84.47
2022-11-14T08:58:17.696Z,84.59
2022-11-14T08:59:19.568Z,84.52
2022-11-14T09:00:18.309Z,84.47
2022-11-14T09:01:16.884Z,84.33
2022-11-14T09:02:17.911Z,84.29
2022-11-14T09:03:17.893Z,84.31
2022-11-14T09:04:17.997Z,84.23
2022-11-14T09:05:17.890Z,84.40
2022-11-14T09:06:18.458Z,84.32
2022-11-14T09:07:17.247Z,84.19
2022-11-14T09:08:17.451Z,84.28
2022-11-14T09:09:17.512Z,84.20
2022-11-14T09:10:17.468Z,84.23
2022-11-14T09:11:20.506Z,84.31
2022-11-14T09:12:17.139Z,84.39
2022-11-14T09:13:17.245Z,84.37
2022-11-14T09:14:17.568Z,84.38
2022-11-14T09:15:17.742Z,84.09
2022-11-14T09:16:17.655Z,84.08
2022-11-14T09:17:17.878Z,84.25
2022-11-14T09:18:17.651Z,84.31
2022-11-14T09:19:50.233Z,84.38
2022-11-14T09:20:17.549Z,84.38
2022-11-14T09:21:17.468Z,84.34
2022-11-14T09:22:17.579Z,84.41
2022-11-14T09:23:17.354Z,84.43
2022-11-14T09:24:17.421Z,84.47
2022-11-14T09:25:17.956Z,84.38
2022-11-14T09:26:18.014Z,84.27
2022-11-14T09:27:17.067Z,84.01
2022-11-14T09:28:17.392Z,84.00
2022-11-14T09:29:17.597Z,84.05
2022-11-14T09:30:17.994Z,83.91
2022-11-14T09:31:17.751Z,83.94
2022-11-14T09:32:18.136Z,83.97
2022-11-14T09:33:19.152Z,84.01
2022-11-14T09:34:17.817Z,84.09
2022-11-14T09:35:17.610Z,83.83
2022-11-14T09:36:17.685Z,84.00
2022-11-14T09:37:17.612Z,84.06
2022-11-14T09:38:17.895Z,83.80
2022-11-14T09:39:17.944Z,83.81
2022-11-14T09:40:18.312Z,84.01
2022-11-14T09:41:18.048Z,84.35
2022-11-14T09:43:17.336Z,84.28
2022-11-14T09:44:20.513Z,84.29
2022-11-14T09:45:18.272Z,84.19
2022-11-14T09:46:18.060Z,84.13
2022-11-14T09:47:21.055Z,83.91
2022-11-14T09:48:18.235Z,84.07
2022-11-14T09:49:17.141Z,84.16
2022-11-14T09:50:20.577Z,83.70
2022-11-14T09:51:17.073Z,83.50
2022-11-14T09:52:16.753Z,83.93
2022-11-14T09:53:18.098Z,83.94
2022-11-14T09:54:17.079Z,83.53
2022-11-14T09:55:17.391Z,83.67
2022-11-14T09:56:17.497Z,83.90
2022-11-14T09:57:17.670Z,83.91
2022-11-14T09:58:17.773Z,83.81
2022-11-14T09:59:17.730Z,83.69
2022-11-14T10:00:18.599Z,83.70
2022-11-14T10:01:17.716Z,83.79
2022-11-14T10:02:18.097Z,83.99
2022-11-14T10:03:17.324Z,83.85
2022-11-14T10:04:17.379Z,83.70
2022-11-14T10:05:17.739Z,83.73
2022-11-14T10:06:17.747Z,83.80
2022-11-14T10:07:18.128Z,83.61
2022-11-14T10:08:17.733Z,83.46
2022-11-14T10:09:17.742Z,83.55
2022-11-14T10:10:18.107Z,83.58
2022-11-14T10:11:17.552Z,83.31
2022-11-14T10:12:17.534Z,83.55
2022-11-14T10:13:17.846Z,83.24
2022-11-14T10:14:18.018Z,83.47
2022-11-14T10:15:17.610Z,83.67
2022-11-14T10:16:17.638Z,83.49
2022-11-14T10:17:18.199Z,83.29
2022-11-14T10:18:17.460Z,83.30
2022-11-14T10:19:17.787Z,83.50
2022-11-14T10:20:18.058Z,83.48
2022-11-14T10:21:17.139Z,83.08
2022-11-14T10:22:16.797Z,83.41
2022-11-14T10:23:17.692Z,83.51
2022-11-14T10:24:17.751Z,83.09
2022-11-14T10:25:18.226Z,83.08
2022-11-14T10:26:17.411Z,83.54
2022-11-14T10:27:17.838Z,83.66
2022-11-14T10:28:17.720Z,83.47
2022-11-14T10:29:17.678Z,83.34
2022-11-14T10:31:17.732Z,83.26
2022-11-14T10:32:17.531Z,83.36
2022-11-14T10:33:17.803Z,83.38
2022-11-14T10:34:17.995Z,83.23
2022-11-14T10:35:17.457Z,83.22
2022-11-14T10:36:18.017Z,83.38
2022-11-14T10:37:17.641Z,83.42
2022-11-14T10:38:18.358Z,83.17
2022-11-14T10:39:17.524Z,83.23
2022-11-14T10:40:31.367Z,83.35
2022-11-14T10:41:55.453Z,83.36
2022-11-14T10:42:31.413Z,83.38
2022-11-14T10:43:17.538Z,83.38
2022-11-14T10:44:17.846Z,83.51
2022-11-14T10:45:18.347Z,83.93
2022-11-14T10:46:17.312Z,83.88
2022-11-14T10:47:17.549Z,84.18
2022-11-14T10:48:17.772Z,83.94
2022-11-14T10:49:18.138Z,83.25
2022-11-14T10:50:17.415Z,83.40
2022-11-14T10:51:17.652Z,83.69
2022-11-14T10:52:17.829Z,83.83
2022-11-14T10:53:18.016Z,83.77
2022-11-14T10:54:36.005Z,83.59
2022-11-14T10:55:17.316Z,83.59
2022-11-14T10:56:17.456Z,83.90
2022-11-14T10:57:17.605Z,84.19
2022-11-14T10:58:17.831Z,84.13
2022-11-14T10:59:18.213Z,84.03
2022-11-14T11:00:18.711Z,84.08
2022-11-14T11:01:17.847Z,83.38
2022-11-14T11:02:18.070Z,83.88
2022-11-14T11:03:17.357Z,83.83
2022-11-14T11:04:17.558Z,83.69
2022-11-14T11:05:18.029Z,83.75
2022-11-14T11:06:36.024Z,83.75
2022-11-14T11:07:17.348Z,83.60
2022-11-14T11:08:50.980Z,83.93
2022-11-14T11:09:17.633Z,83.93
2022-11-14T11:10:17.955Z,84.10
2022-11-14T11:11:17.879Z,84.12
2022-11-14T11:12:40.561Z,83.71
2022-11-14T11:13:18.543Z,83.71
2022-11-14T11:14:19.382Z,83.88
2022-11-14T11:15:18.091Z,83.69
2022-11-14T11:16:17.726Z,83.23
2022-11-14T11:17:17.760Z,83.21
2022-11-14T11:18:18.729Z,83.19
2022-11-14T11:19:18.499Z,82.95
2022-11-14T11:20:18.882Z,83.05
2022-11-14T11:21:19.000Z,83.14
2022-11-14T11:22:18.308Z,83.33
2022-11-14T11:23:18.194Z,83.30
2022-11-14T11:24:17.968Z,83.14
2022-11-14T11:25:18.808Z,83.13
2022-11-14T11:26:19.274Z,83.09
2022-11-14T11:27:18.638Z,82.96
2022-11-14T11:28:18.526Z,82.92
2022-11-14T11:29:19.005Z,82.80
2022-11-14T11:30:18.744Z,83.04
2022-11-14T11:31:19.060Z,83.05
2022-11-14T11:32:18.639Z,82.90
2022-11-14T11:33:19.073Z,82.68
2022-11-14T11:34:18.627Z,82.53
2022-11-14T11:35:19.021Z,82.47
2022-11-14T11:36:18.056Z,82.46
2022-11-14T11:37:18.374Z,82.39
2022-11-14T11:38:22.217Z,82.33
2022-11-14T11:39:17.768Z,82.09
2022-11-14T11:40:18.017Z,82.18
2022-11-14T11:42:07.725Z,82.28
2022-11-14T11:42:18.066Z,82.28
2022-11-14T11:43:45.851Z,82.35
2022-11-14T11:44:18.768Z,82.35
2022-11-14T11:45:18.842Z,82.23
2022-11-14T11:46:18.634Z,82.18
2022-11-14T11:47:18.249Z,82.30
2022-11-14T11:48:17.868Z,82.52
2022-11-14T11:49:18.499Z,82.32
2022-11-14T11:50:18.359Z,82.27
2022-11-14T11:51:18.287Z,82.27
2022-11-14T11:52:18.022Z,82.27
2022-11-14T11:53:17.480Z,82.46
2022-11-14T11:54:18.243Z,82.62
2022-11-14T11:55:18.327Z,82.64
2022-11-14T11:56:17.717Z,82.74
2022-11-14T11:57:21.674Z,82.91
2022-11-14T11:58:17.766Z,82.83
2022-11-14T11:59:18.453Z,82.82
2022-11-14T12:00:19.468Z,82.73
2022-11-14T12:01:18.476Z,82.64
2022-11-14T12:02:20.099Z,82.75
2022-11-14T12:03:20.666Z,82.81
2022-11-14T12:04:18.322Z,82.76
2022-11-14T12:05:18.064Z,82.78
2022-11-14T12:06:19.363Z,82.81
2022-11-14T12:07:19.704Z,82.94
2022-11-14T12:09:18.703Z,82.82
2022-11-14T12:10:18.353Z,82.93
2022-11-14T12:11:18.764Z,83.23
2022-11-14T12:12:18.349Z,83.07
2022-11-14T12:13:18.479Z,83.22
2022-11-14T12:14:18.487Z,82.93
2022-11-14T12:15:18.510Z,83
2022-11-14T12:16:19.825Z,82.86
2022-11-14T12:17:18.298Z,83.11
2022-11-14T12:18:17.948Z,83.27
2022-11-14T12:19:18.363Z,83.19
2022-11-14T12:20:17.695Z,83.30
2022-11-14T12:21:18.348Z,83.54
2022-11-14T12:22:17.781Z,83.25
2022-11-14T12:23:18.288Z,83.09
2022-11-14T12:24:17.878Z,82.95
2022-11-14T12:25:18.464Z,82.80
2022-11-14T12:26:17.884Z,82.65
2022-11-14T12:27:18.722Z,82.98
2022-11-14T12:28:18.354Z,82.69
2022-11-14T12:29:22.454Z,82.5
2022-11-14T12:30:17.620Z,82.39
2022-11-14T12:31:18.491Z,82.58
2022-11-14T12:32:17.994Z,82.41
2022-11-14T12:33:17.540Z,82.49
2022-11-14T12:34:18.154Z,82.38
2022-11-14T12:35:18.297Z,82.17
2022-11-14T12:36:18.386Z,82.10
2022-11-14T12:37:18.178Z,82.16
2022-11-14T12:38:17.682Z,81.98
2022-11-14T12:39:19.122Z,82.24
2022-11-14T12:40:17.825Z,82.58
2022-11-14T12:41:18.492Z,82.64
2022-11-14T12:42:19.111Z,82.54
2022-11-14T12:43:17.689Z,82.44
2022-11-14T12:44:18.824Z,82.34
2022-11-14T12:45:18.330Z,82.39
2022-11-14T12:46:17.792Z,82.33
2022-11-14T12:47:18.012Z,82.19
2022-11-14T12:48:17.651Z,82.25
2022-11-14T12:49:23.167Z,82.37
2022-11-14T12:50:17.695Z,82.37
2022-11-14T12:51:18.667Z,82.40
2022-11-14T12:52:18.015Z,82.33
2022-11-14T12:53:17.860Z,81.94
2022-11-14T12:54:18.036Z,82.12
2022-11-14T12:55:17.815Z,81.88
2022-11-14T12:56:18.060Z,81.85
2022-11-14T12:57:17.463Z,81.73
2022-11-14T12:58:18.026Z,81.46
2022-11-14T12:59:17.471Z,81.46